sensor_id;sensor_type;location;lat;lon;timestamp;pressure;altitude;pressure_sealevel;temperature;humidity
50430;BME280;36359;41.556;-8.418;2023-03-04T00:01:44;100508.94;;;8.08;72.17
50430;BME280;36359;41.556;-8.418;2023-03-04T00:04:09;100505.91;;;8.02;72.71
50430;BME280;36359;41.556;-8.418;2023-03-04T00:06:35;100506.09;;;7.89;73.08
50430;BME280;36359;41.556;-8.418;2023-03-04T00:09:02;100505.91;;;7.58;75.58
50430;BME280;36359;41.556;-8.418;2023-03-04T00:11:30;100501.03;;;7.52;75.72
50430;BME280;36359;41.556;-8.418;2023-03-04T00:13:56;100505.16;;;8.00;74.82
50430;BME280;36359;41.556;-8.418;2023-03-04T00:16:22;100503.66;;;7.86;74.08
50430;BME280;36359;41.556;-8.418;2023-03-04T00:18:54;100506.41;;;7.95;73.79
50430;BME280;36359;41.556;-8.418;2023-03-04T00:21:20;100508.06;;;7.87;73.65
50430;BME280;36359;41.556;-8.418;2023-03-04T00:23:46;100509.94;;;7.75;74.56
50430;BME280;36359;41.556;-8.418;2023-03-04T00:26:11;100509.44;;;7.70;74.84
50430;BME280;36359;41.556;-8.418;2023-03-04T00:28:39;100508.88;;;7.99;73.97
50430;BME280;36359;41.556;-8.418;2023-03-04T00:31:06;100506.94;;;7.89;73.89
50430;BME280;36359;41.556;-8.418;2023-03-04T00:33:32;100510.75;;;7.87;72.61
50430;BME280;36359;41.556;-8.418;2023-03-04T00:35:57;100507.22;;;7.75;73.84
50430;BME280;36359;41.556;-8.418;2023-03-04T00:38:23;100511.63;;;7.76;73.71
50430;BME280;36359;41.556;-8.418;2023-03-04T00:40:49;100510.34;;;7.59;75.18
50430;BME280;36359;41.556;-8.418;2023-03-04T00:43:18;100503.09;;;7.60;76.37
50430;BME280;36359;41.556;-8.418;2023-03-04T00:45:44;100499.66;;;7.58;75.26
50430;BME280;36359;41.556;-8.418;2023-03-04T00:48:10;100506.53;;;7.62;75.56
50430;BME280;36359;41.556;-8.418;2023-03-04T00:50:36;100502.34;;;7.69;75.81
50430;BME280;36359;41.556;-8.418;2023-03-04T00:53:02;100514.25;;;7.66;75.61
50430;BME280;36359;41.556;-8.418;2023-03-04T00:55:27;100506.97;;;7.78;75.14
50430;BME280;36359;41.556;-8.418;2023-03-04T00:57:53;100501.97;;;7.73;74.45
50430;BME280;36359;41.556;-8.418;2023-03-04T01:00:19;100500.97;;;7.74;74.77
50430;BME280;36359;41.556;-8.418;2023-03-04T01:02:45;100497.84;;;7.90;74.04
50430;BME280;36359;41.556;-8.418;2023-03-04T01:05:11;100501.78;;;7.86;73.54
50430;BME280;36359;41.556;-8.418;2023-03-04T01:07:37;100495.66;;;7.84;73.48
50430;BME280;36359;41.556;-8.418;2023-03-04T01:10:04;100496.91;;;7.80;74.34
50430;BME280;36359;41.556;-8.418;2023-03-04T01:12:30;100498.31;;;7.95;74.18
50430;BME280;36359;41.556;-8.418;2023-03-04T01:14:57;100495.63;;;7.95;73.98
50430;BME280;36359;41.556;-8.418;2023-03-04T01:17:23;100493.44;;;7.89;73.44
50430;BME280;36359;41.556;-8.418;2023-03-04T01:19:49;100487.28;;;7.87;73.53
50430;BME280;36359;41.556;-8.418;2023-03-04T01:22:14;100488.03;;;7.89;73.00
50430;BME280;36359;41.556;-8.418;2023-03-04T01:24:41;100489.06;;;8.09;72.33
50430;BME280;36359;41.556;-8.418;2023-03-04T01:27:07;100491.88;;;8.08;72.23
50430;BME280;36359;41.556;-8.418;2023-03-04T01:29:33;100486.50;;;7.96;71.86
50430;BME280;36359;41.556;-8.418;2023-03-04T01:31:59;100495.97;;;8.23;71.80
50430;BME280;36359;41.556;-8.418;2023-03-04T01:34:24;100488.50;;;7.94;72.67
50430;BME280;36359;41.556;-8.418;2023-03-04T01:36:50;100490.25;;;7.84;72.62
50430;BME280;36359;41.556;-8.418;2023-03-04T01:39:17;100497.16;;;7.22;74.76
50430;BME280;36359;41.556;-8.418;2023-03-04T01:41:43;100491.84;;;7.32;74.41
50430;BME280;36359;41.556;-8.418;2023-03-04T01:44:09;100494.19;;;7.14;74.74
50430;BME280;36359;41.556;-8.418;2023-03-04T01:46:36;100503.53;;;7.76;73.69
50430;BME280;36359;41.556;-8.418;2023-03-04T01:49:01;100496.41;;;7.75;72.64
50430;BME280;36359;41.556;-8.418;2023-03-04T01:51:27;100492.91;;;7.63;73.14
50430;BME280;36359;41.556;-8.418;2023-03-04T01:53:53;100492.03;;;7.63;73.87
50430;BME280;36359;41.556;-8.418;2023-03-04T01:56:38;100495.13;;;7.58;74.86
50430;BME280;36359;41.556;-8.418;2023-03-04T01:59:14;100492.81;;;7.42;76.04
50430;BME280;36359;41.556;-8.418;2023-03-04T02:01:49;100489.28;;;7.42;75.70
50430;BME280;36359;41.556;-8.418;2023-03-04T02:04:17;100487.19;;;7.34;75.71
50430;BME280;36359;41.556;-8.418;2023-03-04T02:06:45;100491.88;;;7.21;77.06
50430;BME280;36359;41.556;-8.418;2023-03-04T02:09:12;100491.53;;;7.69;79.51
50430;BME280;36359;41.556;-8.418;2023-03-04T02:11:38;100490.44;;;8.04;74.28
50430;BME280;36359;41.556;-8.418;2023-03-04T02:14:05;100493.50;;;7.99;73.34
50430;BME280;36359;41.556;-8.418;2023-03-04T02:16:32;100477.16;;;7.80;73.01
50430;BME280;36359;41.556;-8.418;2023-03-04T02:18:58;100479.44;;;7.41;74.53
50430;BME280;36359;41.556;-8.418;2023-03-04T02:21:29;100473.72;;;7.78;74.10
50430;BME280;36359;41.556;-8.418;2023-03-04T02:26:29;100474.41;;;7.47;73.93
50430;BME280;36359;41.556;-8.418;2023-03-04T02:28:57;100467.09;;;7.38;73.75
50430;BME280;36359;41.556;-8.418;2023-03-04T02:31:35;100463.31;;;7.18;75.63
50430;BME280;36359;41.556;-8.418;2023-03-04T02:34:10;100470.16;;;7.00;75.56
50430;BME280;36359;41.556;-8.418;2023-03-04T02:36:37;100473.50;;;7.03;76.53
50430;BME280;36359;41.556;-8.418;2023-03-04T02:39:10;100462.81;;;7.13;76.15
50430;BME280;36359;41.556;-8.418;2023-03-04T02:41:36;100467.81;;;8.05;74.46
50430;BME280;36359;41.556;-8.418;2023-03-04T02:44:03;100472.38;;;8.04;73.43
50430;BME280;36359;41.556;-8.418;2023-03-04T02:46:28;100460.69;;;7.83;72.96
50430;BME280;36359;41.556;-8.418;2023-03-04T02:48:54;100457.22;;;7.48;72.96
50430;BME280;36359;41.556;-8.418;2023-03-04T02:51:20;100458.97;;;7.38;74.34
50430;BME280;36359;41.556;-8.418;2023-03-04T02:53:46;100461.19;;;7.44;74.78
50430;BME280;36359;41.556;-8.418;2023-03-04T02:56:12;100460.97;;;7.25;74.46
50430;BME280;36359;41.556;-8.418;2023-03-04T02:58:38;100459.91;;;6.82;76.87
50430;BME280;36359;41.556;-8.418;2023-03-04T03:01:07;100461.25;;;6.66;78.92
50430;BME280;36359;41.556;-8.418;2023-03-04T03:03:33;100461.75;;;6.71;78.62
50430;BME280;36359;41.556;-8.418;2023-03-04T03:05:59;100466.38;;;6.57;79.46
50430;BME280;36359;41.556;-8.418;2023-03-04T03:08:25;100459.50;;;6.76;78.74
50430;BME280;36359;41.556;-8.418;2023-03-04T03:10:52;100458.03;;;6.60;79.35
50430;BME280;36359;41.556;-8.418;2023-03-04T03:13:18;100449.94;;;6.49;79.00
50430;BME280;36359;41.556;-8.418;2023-03-04T03:15:44;100446.38;;;6.49;80.49
50430;BME280;36359;41.556;-8.418;2023-03-04T03:18:10;100449.22;;;6.70;79.40
50430;BME280;36359;41.556;-8.418;2023-03-04T03:20:36;100439.38;;;6.35;80.44
50430;BME280;36359;41.556;-8.418;2023-03-04T03:23:02;100443.09;;;6.56;80.00
50430;BME280;36359;41.556;-8.418;2023-03-04T03:25:28;100447.97;;;6.51;79.87
50430;BME280;36359;41.556;-8.418;2023-03-04T03:27:54;100440.88;;;6.39;80.59
50430;BME280;36359;41.556;-8.418;2023-03-04T03:30:21;100444.69;;;6.59;80.32
50430;BME280;36359;41.556;-8.418;2023-03-04T03:32:47;100442.09;;;6.46;79.11
50430;BME280;36359;41.556;-8.418;2023-03-04T03:35:13;100446.75;;;6.55;79.29
50430;BME280;36359;41.556;-8.418;2023-03-04T03:37:39;100437.31;;;6.50;80.00
50430;BME280;36359;41.556;-8.418;2023-03-04T03:42:38;100434.75;;;6.48;77.43
50430;BME280;36359;41.556;-8.418;2023-03-04T03:45:04;100435.97;;;6.33;79.78
50430;BME280;36359;41.556;-8.418;2023-03-04T03:47:30;100438.50;;;6.23;80.27
50430;BME280;36359;41.556;-8.418;2023-03-04T03:49:56;100445.03;;;6.43;80.63
50430;BME280;36359;41.556;-8.418;2023-03-04T03:52:21;100438.06;;;6.63;80.08
50430;BME280;36359;41.556;-8.418;2023-03-04T03:54:47;100440.16;;;6.59;78.58
50430;BME280;36359;41.556;-8.418;2023-03-04T03:57:13;100442.06;;;6.35;80.60
50430;BME280;36359;41.556;-8.418;2023-03-04T03:59:38;100432.28;;;6.34;80.46
50430;BME280;36359;41.556;-8.418;2023-03-04T04:02:04;100442.59;;;7.08;78.97
50430;BME280;36359;41.556;-8.418;2023-03-04T04:04:30;100440.63;;;6.76;78.59
50430;BME280;36359;41.556;-8.418;2023-03-04T04:06:55;100437.94;;;6.53;79.36
50430;BME280;36359;41.556;-8.418;2023-03-04T04:09:21;100441.13;;;7.15;78.54
50430;BME280;36359;41.556;-8.418;2023-03-04T04:11:47;100438.38;;;7.69;77.16
50430;BME280;36359;41.556;-8.418;2023-03-04T04:14:13;100436.91;;;7.33;76.58
50430;BME280;36359;41.556;-8.418;2023-03-04T04:16:39;100441.31;;;7.23;75.19
50430;BME280;36359;41.556;-8.418;2023-03-04T04:19:05;100439.25;;;7.26;76.50
50430;BME280;36359;41.556;-8.418;2023-03-04T04:21:31;100436.91;;;7.33;75.24
50430;BME280;36359;41.556;-8.418;2023-03-04T04:23:57;100441.97;;;7.15;75.21
50430;BME280;36359;41.556;-8.418;2023-03-04T04:26:22;100438.53;;;7.02;75.32
50430;BME280;36359;41.556;-8.418;2023-03-04T04:28:49;100439.63;;;6.99;75.35
50430;BME280;36359;41.556;-8.418;2023-03-04T04:31:15;100437.72;;;6.68;76.95
50430;BME280;36359;41.556;-8.418;2023-03-04T04:33:41;100437.44;;;6.48;78.05
50430;BME280;36359;41.556;-8.418;2023-03-04T04:36:11;100438.94;;;6.06;79.58
50430;BME280;36359;41.556;-8.418;2023-03-04T04:38:37;100445.75;;;5.63;82.67
50430;BME280;36359;41.556;-8.418;2023-03-04T04:41:03;100460.97;;;6.57;81.12
50430;BME280;36359;41.556;-8.418;2023-03-04T04:43:29;100453.88;;;6.79;80.30
50430;BME280;36359;41.556;-8.418;2023-03-04T04:45:58;100457.91;;;6.85;77.80
50430;BME280;36359;41.556;-8.418;2023-03-04T04:48:24;100461.09;;;6.78;77.36
50430;BME280;36359;41.556;-8.418;2023-03-04T04:50:54;100446.75;;;6.55;77.34
50430;BME280;36359;41.556;-8.418;2023-03-04T04:53:20;100451.88;;;7.26;80.14
50430;BME280;36359;41.556;-8.418;2023-03-04T04:55:46;100452.53;;;6.85;76.03
50430;BME280;36359;41.556;-8.418;2023-03-04T04:58:12;100456.34;;;6.71;76.08
50430;BME280;36359;41.556;-8.418;2023-03-04T05:00:37;100452.28;;;6.99;75.53
50430;BME280;36359;41.556;-8.418;2023-03-04T05:03:03;100457.94;;;6.62;77.34
50430;BME280;36359;41.556;-8.418;2023-03-04T05:05:28;100454.59;;;6.47;78.27
50430;BME280;36359;41.556;-8.418;2023-03-04T05:07:54;100446.38;;;6.49;77.53
50430;BME280;36359;41.556;-8.418;2023-03-04T05:10:20;100440.63;;;6.42;77.44
50430;BME280;36359;41.556;-8.418;2023-03-04T05:12:45;100447.50;;;6.57;77.47
50430;BME280;36359;41.556;-8.418;2023-03-04T05:15:11;100443.97;;;6.68;77.20
50430;BME280;36359;41.556;-8.418;2023-03-04T05:17:37;100444.50;;;7.28;75.55
50430;BME280;36359;41.556;-8.418;2023-03-04T05:20:03;100451.03;;;7.14;75.44
50430;BME280;36359;41.556;-8.418;2023-03-04T05:22:28;100448.88;;;6.86;75.29
50430;BME280;36359;41.556;-8.418;2023-03-04T05:24:54;100445.03;;;6.99;75.76
50430;BME280;36359;41.556;-8.418;2023-03-04T05:27:20;100447.38;;;7.04;74.46
50430;BME280;36359;41.556;-8.418;2023-03-04T05:29:46;100446.78;;;7.00;73.40
50430;BME280;36359;41.556;-8.418;2023-03-04T05:32:11;100442.97;;;6.92;73.09
50430;BME280;36359;41.556;-8.418;2023-03-04T05:34:37;100448.72;;;6.87;74.72
50430;BME280;36359;41.556;-8.418;2023-03-04T05:37:03;100445.19;;;6.87;73.34
50430;BME280;36359;41.556;-8.418;2023-03-04T05:39:28;100443.59;;;6.84;72.02
50430;BME280;36359;41.556;-8.418;2023-03-04T05:41:54;100442.38;;;6.77;71.43
50430;BME280;36359;41.556;-8.418;2023-03-04T05:44:20;100444.53;;;7.05;71.08
50430;BME280;36359;41.556;-8.418;2023-03-04T05:46:45;100446.50;;;6.70;68.88
50430;BME280;36359;41.556;-8.418;2023-03-04T05:49:11;100445.78;;;6.45;69.30
50430;BME280;36359;41.556;-8.418;2023-03-04T05:51:37;100452.50;;;6.40;70.23
50430;BME280;36359;41.556;-8.418;2023-03-04T05:54:02;100452.38;;;6.30;71.66
50430;BME280;36359;41.556;-8.418;2023-03-04T05:56:28;100459.28;;;6.56;70.44
50430;BME280;36359;41.556;-8.418;2023-03-04T05:58:58;100458.53;;;6.08;75.64
50430;BME280;36359;41.556;-8.418;2023-03-04T06:01:24;100459.22;;;6.34;74.90
50430;BME280;36359;41.556;-8.418;2023-03-04T06:03:50;100456.19;;;6.39;74.58
50430;BME280;36359;41.556;-8.418;2023-03-04T06:06:16;100463.16;;;6.30;75.69
50430;BME280;36359;41.556;-8.418;2023-03-04T06:08:42;100465.03;;;6.74;75.57
50430;BME280;36359;41.556;-8.418;2023-03-04T06:13:33;100471.59;;;6.36;74.45
50430;BME280;36359;41.556;-8.418;2023-03-04T06:16:00;100462.31;;;6.05;74.45
50430;BME280;36359;41.556;-8.418;2023-03-04T06:18:26;100474.44;;;6.00;74.23
50430;BME280;36359;41.556;-8.418;2023-03-04T06:20:57;100469.31;;;6.08;71.62
50430;BME280;36359;41.556;-8.418;2023-03-04T06:23:24;100469.25;;;6.32;70.96
50430;BME280;36359;41.556;-8.418;2023-03-04T06:25:52;100471.91;;;6.56;70.33
50430;BME280;36359;41.556;-8.418;2023-03-04T06:28:18;100474.53;;;6.33;67.65
50430;BME280;36359;41.556;-8.418;2023-03-04T06:30:44;100468.06;;;6.58;67.13
50430;BME280;36359;41.556;-8.418;2023-03-04T06:33:10;100477.91;;;6.71;64.80
50430;BME280;36359;41.556;-8.418;2023-03-04T06:35:35;100485.50;;;6.99;63.64
50430;BME280;36359;41.556;-8.418;2023-03-04T06:38:01;100478.03;;;6.80;63.88
50430;BME280;36359;41.556;-8.418;2023-03-04T06:40:27;100480.84;;;6.79;63.93
50430;BME280;36359;41.556;-8.418;2023-03-04T06:42:52;100485.50;;;6.99;63.16
50430;BME280;36359;41.556;-8.418;2023-03-04T06:45:18;100474.72;;;7.11;61.94
50430;BME280;36359;41.556;-8.418;2023-03-04T06:47:44;100479.59;;;7.39;63.64
50430;BME280;36359;41.556;-8.418;2023-03-04T06:50:11;100489.28;;;7.42;61.90
50430;BME280;36359;41.556;-8.418;2023-03-04T06:52:38;100480.06;;;7.44;60.73
50430;BME280;36359;41.556;-8.418;2023-03-04T06:55:04;100480.69;;;7.37;61.81
50430;BME280;36359;41.556;-8.418;2023-03-04T06:57:30;100486.50;;;6.98;61.99
50430;BME280;36359;41.556;-8.418;2023-03-04T06:59:55;100483.78;;;7.10;63.39
50430;BME280;36359;41.556;-8.418;2023-03-04T07:02:21;100480.09;;;6.99;63.29
50430;BME280;36359;41.556;-8.418;2023-03-04T07:04:47;100485.75;;;6.74;62.93
50430;BME280;36359;41.556;-8.418;2023-03-04T07:07:13;100477.28;;;6.67;63.59
50430;BME280;36359;41.556;-8.418;2023-03-04T07:09:38;100478.72;;;6.49;64.20
50430;BME280;36359;41.556;-8.418;2023-03-04T07:12:04;100480.84;;;7.01;65.35
50430;BME280;36359;41.556;-8.418;2023-03-04T07:14:30;100476.94;;;6.83;62.25
50430;BME280;36359;41.556;-8.418;2023-03-04T07:16:56;100480.75;;;7.03;63.06
50430;BME280;36359;41.556;-8.418;2023-03-04T07:19:22;100484.25;;;7.26;68.20
50430;BME280;36359;41.556;-8.418;2023-03-04T07:21:48;100489.06;;;7.00;62.40
50430;BME280;36359;41.556;-8.418;2023-03-04T07:24:14;100487.09;;;7.02;65.43
50430;BME280;36359;41.556;-8.418;2023-03-04T07:26:40;100487.09;;;7.02;62.29
50430;BME280;36359;41.556;-8.418;2023-03-04T07:29:05;100483.06;;;6.74;62.72
50430;BME280;36359;41.556;-8.418;2023-03-04T07:31:33;100488.44;;;7.41;63.85
50430;BME280;36359;41.556;-8.418;2023-03-04T07:34:02;100493.66;;;7.54;61.35
50430;BME280;36359;41.556;-8.418;2023-03-04T07:36:28;100495.78;;;8.15;59.55
50430;BME280;36359;41.556;-8.418;2023-03-04T07:38:54;100494.06;;;8.35;58.07
50430;BME280;36359;41.556;-8.418;2023-03-04T07:41:23;100496.38;;;8.81;55.81
50430;BME280;36359;41.556;-8.418;2023-03-04T07:43:49;100490.34;;;8.68;56.62
50430;BME280;36359;41.556;-8.418;2023-03-04T07:46:15;100497.06;;;8.74;55.29
50430;BME280;36359;41.556;-8.418;2023-03-04T07:48:41;100498.16;;;8.92;55.80
50430;BME280;36359;41.556;-8.418;2023-03-04T07:51:33;100502.88;;;9.00;55.15
50430;BME280;36359;41.556;-8.418;2023-03-04T07:54:00;100506.84;;;8.96;54.28
50430;BME280;36359;41.556;-8.418;2023-03-04T07:56:28;100508.50;;;8.87;54.73
50430;BME280;36359;41.556;-8.418;2023-03-04T07:58:54;100510.03;;;9.01;55.27
50430;BME280;36359;41.556;-8.418;2023-03-04T08:01:26;100511.81;;;8.91;54.17
50430;BME280;36359;41.556;-8.418;2023-03-04T08:03:52;100514.38;;;8.92;54.94
50430;BME280;36359;41.556;-8.418;2023-03-04T08:06:19;100511.00;;;9.40;55.78
50430;BME280;36359;41.556;-8.418;2023-03-04T08:08:46;100508.03;;;9.43;53.85
50430;BME280;36359;41.556;-8.418;2023-03-04T08:11:16;100511.16;;;9.39;52.66
50430;BME280;36359;41.556;-8.418;2023-03-04T08:13:43;100515.19;;;9.44;53.72
50430;BME280;36359;41.556;-8.418;2023-03-04T08:16:12;100518.06;;;9.62;53.17
50430;BME280;36359;41.556;-8.418;2023-03-04T08:18:43;100521.47;;;9.64;53.25
50430;BME280;36359;41.556;-8.418;2023-03-04T08:21:11;100520.97;;;9.80;52.28
50430;BME280;36359;41.556;-8.418;2023-03-04T08:23:37;100522.53;;;9.83;51.65
50430;BME280;36359;41.556;-8.418;2023-03-04T08:26:12;100526.09;;;9.83;52.54
50430;BME280;36359;41.556;-8.418;2023-03-04T08:28:39;100518.97;;;10.01;50.76
50430;BME280;36359;41.556;-8.418;2023-03-04T08:31:05;100513.09;;;9.96;52.33
50430;BME280;36359;41.556;-8.418;2023-03-04T08:33:31;100521.28;;;10.45;54.79
50430;BME280;36359;41.556;-8.418;2023-03-04T08:35:57;100525.72;;;10.27;50.19
50430;BME280;36359;41.556;-8.418;2023-03-04T08:38:25;100527.59;;;10.36;51.71
50430;BME280;36359;41.556;-8.418;2023-03-04T08:40:56;100527.44;;;10.47;49.75
50430;BME280;36359;41.556;-8.418;2023-03-04T08:43:23;100526.13;;;10.51;50.54
50430;BME280;36359;41.556;-8.418;2023-03-04T08:45:50;100531.28;;;10.44;49.64
50430;BME280;36359;41.556;-8.418;2023-03-04T08:48:17;100527.38;;;10.66;49.62
50430;BME280;36359;41.556;-8.418;2023-03-04T08:50:46;100539.13;;;10.57;50.33
50430;BME280;36359;41.556;-8.418;2023-03-04T08:53:13;100535.66;;;10.75;51.75
50430;BME280;36359;41.556;-8.418;2023-03-04T08:55:40;100536.47;;;10.95;51.02
50430;BME280;36359;41.556;-8.418;2023-03-04T08:58:07;100537.50;;;10.84;51.19
50430;BME280;36359;41.556;-8.418;2023-03-04T09:00:34;100537.38;;;10.85;48.79
50430;BME280;36359;41.556;-8.418;2023-03-04T09:03:05;100541.81;;;10.77;51.16
50430;BME280;36359;41.556;-8.418;2023-03-04T09:05:31;100530.66;;;11.17;53.13
50430;BME280;36359;41.556;-8.418;2023-03-04T09:07:57;100535.72;;;11.02;49.63
50430;BME280;36359;41.556;-8.418;2023-03-04T09:10:24;100541.34;;;11.28;51.83
50430;BME280;36359;41.556;-8.418;2023-03-04T09:12:49;100545.25;;;11.16;49.33
50430;BME280;36359;41.556;-8.418;2023-03-04T09:15:16;100542.66;;;11.24;50.16
50430;BME280;36359;41.556;-8.418;2023-03-04T09:17:42;100528.84;;;12.18;52.25
50430;BME280;36359;41.556;-8.418;2023-03-04T09:20:09;100561.19;;;11.66;46.15
50430;BME280;36359;41.556;-8.418;2023-03-04T09:22:36;100544.97;;;12.20;47.57
50430;BME280;36359;41.556;-8.418;2023-03-04T09:25:03;100551.66;;;11.90;45.78
50430;BME280;36359;41.556;-8.418;2023-03-04T09:27:28;100541.50;;;12.10;47.81
50430;BME280;36359;41.556;-8.418;2023-03-04T09:29:54;100550.97;;;12.23;47.16
50430;BME280;36359;41.556;-8.418;2023-03-04T09:32:20;100547.88;;;12.36;44.79
50430;BME280;36359;41.556;-8.418;2023-03-04T09:34:45;100541.19;;;12.13;44.42
50430;BME280;36359;41.556;-8.418;2023-03-04T09:37:14;100539.50;;;12.30;45.06
50430;BME280;36359;41.556;-8.418;2023-03-04T09:39:39;100541.31;;;12.29;44.05
50430;BME280;36359;41.556;-8.418;2023-03-04T09:42:06;100545.44;;;12.51;43.05
50430;BME280;36359;41.556;-8.418;2023-03-04T09:44:37;100557.19;;;12.52;43.85
50430;BME280;36359;41.556;-8.418;2023-03-04T09:47:09;100546.84;;;12.55;43.31
50430;BME280;36359;41.556;-8.418;2023-03-04T09:49:39;100554.13;;;12.72;43.08
50430;BME280;36359;41.556;-8.418;2023-03-04T09:52:24;100556.38;;;12.77;44.10
50430;BME280;36359;41.556;-8.418;2023-03-04T10:00:46;100554.94;;;13.17;41.85
50430;BME280;36359;41.556;-8.418;2023-03-04T10:03:20;100558.56;;;13.00;41.54
50430;BME280;36359;41.556;-8.418;2023-03-04T10:05:53;100555.97;;;13.16;43.19
50430;BME280;36359;41.556;-8.418;2023-03-04T10:11:15;100551.16;;;13.36;41.22
50430;BME280;36359;41.556;-8.418;2023-03-04T10:13:53;100551.03;;;13.46;43.34
50430;BME280;36359;41.556;-8.418;2023-03-04T10:16:23;100544.63;;;13.29;42.32
50430;BME280;36359;41.556;-8.418;2023-03-04T10:18:55;100546.09;;;13.15;42.21
50430;BME280;36359;41.556;-8.418;2023-03-04T10:21:29;100544.31;;;13.32;41.92
50430;BME280;36359;41.556;-8.418;2023-03-04T10:23:58;100544.16;;;13.33;41.43
50430;BME280;36359;41.556;-8.418;2023-03-04T10:26:28;100540.50;;;13.25;41.32
50430;BME280;36359;41.556;-8.418;2023-03-04T10:28:55;100541.84;;;13.47;41.31
50430;BME280;36359;41.556;-8.418;2023-03-04T10:31:33;100540.84;;;13.56;40.45
50430;BME280;36359;41.556;-8.418;2023-03-04T10:34:04;100532.25;;;13.77;41.20
50430;BME280;36359;41.556;-8.418;2023-03-04T10:39:02;100525.97;;;13.93;40.07
50430;BME280;36359;41.556;-8.418;2023-03-04T10:41:30;100539.00;;;14.15;42.66
50430;BME280;36359;41.556;-8.418;2023-03-04T10:46:46;100527.06;;;14.41;40.90
50430;BME280;36359;41.556;-8.418;2023-03-04T10:49:14;100530.13;;;14.38;39.36
50430;BME280;36359;41.556;-8.418;2023-03-04T10:55:02;100527.25;;;14.39;40.99
50430;BME280;36359;41.556;-8.418;2023-03-04T10:57:34;100546.16;;;14.24;39.84
50430;BME280;36359;41.556;-8.418;2023-03-04T11:00:25;100528.06;;;14.07;39.29
50430;BME280;36359;41.556;-8.418;2023-03-04T11:02:51;100523.34;;;14.66;43.21
50430;BME280;36359;41.556;-8.418;2023-03-04T11:07:48;100522.50;;;14.66;41.53
50430;BME280;36359;41.556;-8.418;2023-03-04T11:10:18;100516.84;;;14.75;41.70
50430;BME280;36359;41.556;-8.418;2023-03-04T11:15:28;100514.31;;;14.74;39.10
50430;BME280;36359;41.556;-8.418;2023-03-04T11:18:02;100512.56;;;14.89;39.84
50430;BME280;36359;41.556;-8.418;2023-03-04T11:20:33;100510.19;;;14.94;39.66
50430;BME280;36359;41.556;-8.418;2023-03-04T11:23:09;100504.38;;;14.97;39.97
50430;BME280;36359;41.556;-8.418;2023-03-04T11:25:41;100503.47;;;15.05;39.90
50430;BME280;36359;41.556;-8.418;2023-03-04T11:31:13;100501.44;;;15.07;39.96
50430;BME280;36359;41.556;-8.418;2023-03-04T11:40:08;100498.56;;;15.40;39.10
50430;BME280;36359;41.556;-8.418;2023-03-04T11:44:57;100486.31;;;15.28;37.18
50430;BME280;36359;41.556;-8.418;2023-03-04T11:47:35;100487.25;;;15.51;39.55
50430;BME280;36359;41.556;-8.418;2023-03-04T11:50:22;100482.88;;;15.73;38.15
50430;BME280;36359;41.556;-8.418;2023-03-04T11:53:15;100487.59;;;15.87;37.10
50430;BME280;36359;41.556;-8.418;2023-03-04T12:04:48;100456.72;;;16.25;39.35
50430;BME280;36359;41.556;-8.418;2023-03-04T12:10:02;100453.97;;;16.25;35.66
50430;BME280;36359;41.556;-8.418;2023-03-04T12:15:21;100453.78;;;16.64;40.78
50430;BME280;36359;41.556;-8.418;2023-03-04T12:18:21;100444.59;;;16.80;40.47
50430;BME280;36359;41.556;-8.418;2023-03-04T12:26:24;100437.53;;;16.63;39.40
50430;BME280;36359;41.556;-8.418;2023-03-04T12:29:07;100438.06;;;16.81;37.51
50430;BME280;36359;41.556;-8.418;2023-03-04T12:31:45;100431.16;;;16.85;34.34
50430;BME280;36359;41.556;-8.418;2023-03-04T12:37:27;100414.53;;;17.01;39.80
50430;BME280;36359;41.556;-8.418;2023-03-04T12:40:11;100408.66;;;17.05;35.13
50430;BME280;36359;41.556;-8.418;2023-03-04T12:43:06;100402.63;;;16.94;32.44
50430;BME280;36359;41.556;-8.418;2023-03-04T12:45:43;100402.50;;;17.02;40.00
50430;BME280;36359;41.556;-8.418;2023-03-04T12:48:17;100396.38;;;17.15;34.31
50430;BME280;36359;41.556;-8.418;2023-03-04T12:53:58;100387.66;;;17.27;35.35
50430;BME280;36359;41.556;-8.418;2023-03-04T12:56:40;100380.31;;;17.48;39.66
50430;BME280;36359;41.556;-8.418;2023-03-04T12:59:14;100381.56;;;17.46;38.58
50430;BME280;36359;41.556;-8.418;2023-03-04T13:05:02;100367.03;;;17.31;33.38
50430;BME280;36359;41.556;-8.418;2023-03-04T13:07:41;100357.44;;;17.05;32.98
50430;BME280;36359;41.556;-8.418;2023-03-04T13:10:13;100364.66;;;16.91;31.49
50430;BME280;36359;41.556;-8.418;2023-03-04T13:13:00;100361.03;;;17.06;32.92
50430;BME280;36359;41.556;-8.418;2023-03-04T13:15:29;100360.75;;;17.15;34.77
50430;BME280;36359;41.556;-8.418;2023-03-04T13:20:42;100345.94;;;17.31;30.98
50430;BME280;36359;41.556;-8.418;2023-03-04T13:25:40;100335.75;;;17.46;30.93
50430;BME280;36359;41.556;-8.418;2023-03-04T13:51:26;100302.66;;;17.27;31.00
50430;BME280;36359;41.556;-8.418;2023-03-04T13:56:47;100291.38;;;17.58;29.83
50430;BME280;36359;41.556;-8.418;2023-03-04T14:02:34;100285.09;;;17.21;29.09
50430;BME280;36359;41.556;-8.418;2023-03-04T14:05:00;100280.41;;;17.36;31.86
50430;BME280;36359;41.556;-8.418;2023-03-04T14:12:19;100275.28;;;17.76;36.74
50430;BME280;36359;41.556;-8.418;2023-03-04T14:14:51;100277.25;;;17.82;29.48
50430;BME280;36359;41.556;-8.418;2023-03-04T14:17:30;100271.88;;;17.96;30.34
50430;BME280;36359;41.556;-8.418;2023-03-04T14:19:57;100264.72;;;17.95;32.30
50430;BME280;36359;41.556;-8.418;2023-03-04T14:22:27;100266.94;;;17.84;27.98
50430;BME280;36359;41.556;-8.418;2023-03-04T14:24:59;100268.38;;;17.80;35.55
50430;BME280;36359;41.556;-8.418;2023-03-04T14:27:25;100269.16;;;17.74;29.16
50430;BME280;36359;41.556;-8.418;2023-03-04T14:29:55;100264.00;;;17.86;29.13
50430;BME280;36359;41.556;-8.418;2023-03-04T14:32:22;100253.66;;;17.88;28.97
50430;BME280;36359;41.556;-8.418;2023-03-04T14:34:49;100251.03;;;18.01;32.38
50430;BME280;36359;41.556;-8.418;2023-03-04T14:37:23;100242.50;;;18.24;33.40
50430;BME280;36359;41.556;-8.418;2023-03-04T14:39:55;100254.41;;;18.38;35.17
50430;BME280;36359;41.556;-8.418;2023-03-04T14:42:24;100251.44;;;18.33;32.17